Vremea acum in Ineu - Romania

Vrei sa afli care e starea vremii acum in Arad - Romania? Dorim sa iti furnizam starea vremii pentru Arad - Romania. Starea vremii Arad - Romania pentru astazi.

Vremea acum in Ineu

Temperatura: 12.5 °C

Este: Thundery outbreaks in nearby
Se simte ca: 12.1 °C
Innorat: 73 %
Precipitatii: 100 %
Presiune atmosferica: 1013 hPa
Umiditate: 85%
Vizibilitate: 9 km
Vantul bate din SE cu 7.2 km/h

Evolutia vremii in Ineu pe ore

Ora: 09:00
Thundery outbreaks in nearby
Temperatura: 15.2°C
Sansa de precipitatii: 100%
Ora Descriere Temp Se simte Precipitatii Umiditate Vant
00:00Senin13.8°13.5°0%68%SE 7.9 KM/H
01:00Senin13.7°13.1°0%68%ESE 9.4 KM/H
02:00Patchy rain nearby13.7°13.2°74%69%SE 8.6 KM/H
03:0012.9°13.4°0%73%SE 4 KM/H
04:00Thundery outbreaks in nearby12.9°12.9°69%74%NW 2.9 KM/H
05:00Burniță ușoară12.2°12.2°100%79%NE 2.9 KM/H
06:00Ploi usoare11.4°11°100%85%E 6.5 KM/H
07:00Thundery outbreaks in nearby12.5°12.1°100%85%SE 7.2 KM/H
08:00Thundery outbreaks in nearby13.9°14°100%86%SSE 5.8 KM/H
09:00Thundery outbreaks in nearby15.2°15.2°100%85%SSW 5.4 KM/H
10:00Thundery outbreaks in nearby15.6°15.6°100%84%SSW 5.4 KM/H
11:00Acoperit de nori15.7°15.7°0%83%S 5.8 KM/H
12:00Thundery outbreaks in nearby15.5°15.5°100%83%S 8.3 KM/H
13:00Patchy rain nearby16°16°77%83%S 8.6 KM/H
14:00Ploi usoare16.5°16.5°100%82%SSW 7.2 KM/H
15:00Ploaie ușoară15.9°15.9°100%90%SW 7.9 KM/H
16:00Ploi usoare14.5°14.9°100%96%W 4.7 KM/H
17:00Ploi usoare14.8°14.8°100%93%W 2.9 KM/H
18:00Ploi usoare15°15°100%92%W 1.4 KM/H
19:00Patchy rain nearby14.9°14.9°100%92%SSW 1.1 KM/H
20:00Patchy rain nearby14.4°14.4°100%93%S 2.9 KM/H
21:00Ceata13.2°13.5°0%95%SSE 4.7 KM/H
22:00Ceata13°13.2°0%95%SSE 5 KM/H
23:00Ceata12.2°12.2°0%96%S 5 KM/H




tutorials